createdAt,value
2018-06-09T00:00:14.084Z,72.79
2018-06-09T00:02:43.931Z,72.63
2018-06-09T00:05:12.925Z,72.74
2018-06-09T00:07:41.988Z,72.73
2018-06-09T00:10:10.925Z,72.78
2018-06-09T00:12:40.138Z,73.43
2018-06-09T00:15:10.087Z,72.95
2018-06-09T00:17:39.703Z,73.18
2018-06-09T00:20:09.509Z,73.23
2018-06-09T00:22:38.435Z,73.73
2018-06-09T00:25:07.449Z,73.75
2018-06-09T00:27:37.083Z,73.75
2018-06-09T00:30:06.401Z,73.87
2018-06-09T00:32:35.375Z,73.93
2018-06-09T00:35:04.503Z,74.15
2018-06-09T00:37:33.440Z,74.27
2018-06-09T00:40:02.371Z,74.41
2018-06-09T00:42:31.485Z,74.81
2018-06-09T00:45:00.443Z,74.98
2018-06-09T00:47:29.472Z,74.86
2018-06-09T00:49:59.810Z,75.23
2018-06-09T00:52:28.702Z,75.26
2018-06-09T00:54:57.609Z,75.33
2018-06-09T00:57:26.583Z,75.58
2018-06-09T00:59:55.618Z,75.89
2018-06-09T01:02:24.554Z,75.82
2018-06-09T01:04:53.621Z,76.28
2018-06-09T01:07:23.769Z,76.44
2018-06-09T01:09:52.766Z,77.11
2018-06-09T01:12:22.759Z,76.78
2018-06-09T01:14:52.248Z,76.76
2018-06-09T01:17:21.364Z,77.48
2018-06-09T01:19:51.454Z,77.41
2018-06-09T01:22:20.519Z,77.56
2018-06-09T01:24:49.415Z,77.27
2018-06-09T01:27:19.661Z,77.72
2018-06-09T01:29:49.672Z,78.13
2018-06-09T01:32:19.547Z,78.05
2018-06-09T01:34:48.551Z,77.91
2018-06-09T01:37:17.589Z,78.25
2018-06-09T01:39:46.554Z,77.92
2018-06-09T01:42:15.479Z,78.54
2018-06-09T01:44:44.468Z,78.27
2018-06-09T01:47:13.792Z,77.69
2018-06-09T01:49:44.152Z,77.52
2018-06-09T01:52:13.127Z,77.56
2018-06-09T01:54:42.041Z,77.31
2018-06-09T01:57:12.275Z,77.88
2018-06-09T01:59:42.288Z,77.74
2018-06-09T02:02:12.030Z,77.42
2018-06-09T02:04:41.483Z,77.19
2018-06-09T02:07:10.897Z,77.34
2018-06-09T02:09:39.819Z,77.39
2018-06-09T02:12:08.883Z,77.34
2018-06-09T02:14:37.783Z,77.42
2018-06-09T02:17:06.806Z,77.72
2018-06-09T02:19:35.843Z,77.92
2018-06-09T02:22:04.819Z,77.77
2018-06-09T02:24:34.500Z,77.74
2018-06-09T02:27:03.558Z,77.26
2018-06-09T02:29:32.512Z,77.52
2018-06-09T02:32:01.472Z,77.64
2018-06-09T02:34:31.014Z,77.74
2018-06-09T02:37:00.041Z,78.40
2018-06-09T02:39:29.020Z,78.00
2018-06-09T02:41:58.072Z,77.68
2018-06-09T02:44:27.026Z,78.25
2018-06-09T02:46:55.955Z,77.53
2018-06-09T02:49:25.023Z,77.74
2018-06-09T02:51:54.133Z,77.78
2018-06-09T02:54:23.136Z,77.69
2018-06-09T02:56:52.195Z,77.77
2018-06-09T02:59:21.116Z,77.77
2018-06-09T03:01:50.098Z,77.55
2018-06-09T03:04:20.024Z,77.95
2018-06-09T03:06:48.958Z,78.01
2018-06-09T03:09:17.871Z,77.65
2018-06-09T03:11:47.282Z,78.09
2018-06-09T03:14:17.201Z,77.66
2018-06-09T03:16:46.109Z,78.23
2018-06-09T03:19:15.785Z,78.31
2018-06-09T03:21:44.711Z,78.50
2018-06-09T03:24:13.624Z,78.33
2018-06-09T03:26:42.687Z,78.38
2018-06-09T03:29:11.676Z,78.02
2018-06-09T03:31:41.163Z,77.79
2018-06-09T03:34:10.236Z,77.89
2018-06-09T03:36:39.243Z,77.61
2018-06-09T03:39:08.820Z,77.62
2018-06-09T03:41:37.783Z,77.69
2018-06-09T03:44:07.389Z,77.15
2018-06-09T03:46:36.331Z,76.36
2018-06-09T03:49:05.549Z,76.47
2018-06-09T03:51:35.546Z,76.34
2018-06-09T03:54:04.515Z,76.07
2018-06-09T03:56:33.527Z,75.92
2018-06-09T03:59:02.473Z,75.57
2018-06-09T04:01:31.448Z,75.66
2018-06-09T04:04:00.600Z,75.17
2018-06-09T04:06:29.569Z,74.91
2018-06-09T04:08:58.467Z,74.72
2018-06-09T04:11:27.583Z,75.11
2018-06-09T04:13:56.589Z,74.62
2018-06-09T04:16:25.615Z,74.16
2018-06-09T04:18:55.137Z,73.72
2018-06-09T04:21:24.371Z,73.34
2018-06-09T04:23:53.337Z,73.67
2018-06-09T04:26:22.307Z,72.59
2018-06-09T04:28:51.217Z,72.18
2018-06-09T04:31:20.163Z,72.24
2018-06-09T04:33:49.197Z,71.97
2018-06-09T04:36:18.128Z,71.74
2018-06-09T04:38:47.048Z,72.55
2018-06-09T04:41:16.057Z,70.88
2018-06-09T04:43:45.044Z,70.18
2018-06-09T04:46:14.024Z,69.83
2018-06-09T04:48:43.741Z,70.37
2018-06-09T04:51:13.230Z,69.30
2018-06-09T04:53:42.188Z,68.51
2018-06-09T04:56:11.282Z,68.96
2018-06-09T04:58:41.197Z,68.77
2018-06-09T05:01:10.138Z,67.74
2018-06-09T05:03:39.090Z,68.58
2018-06-09T05:06:08.051Z,67.71
2018-06-09T05:08:37.502Z,67.35
2018-06-09T05:11:06.506Z,66.98
2018-06-09T05:13:35.520Z,65.95
2018-06-09T05:16:04.534Z,66.42
2018-06-09T05:18:33.569Z,64.19
2018-06-09T05:21:02.678Z,62.61
2018-06-09T05:23:31.695Z,61.79
2018-06-09T05:26:00.860Z,63.00
2018-06-09T05:28:29.764Z,62.47
2018-06-09T05:30:58.772Z,63.65
2018-06-09T05:33:27.818Z,61.78
2018-06-09T05:35:57.836Z,61.74
2018-06-09T05:38:26.791Z,61.89
2018-06-09T05:40:55.748Z,61.08
2018-06-09T05:43:24.715Z,62.10
2018-06-09T05:45:54.207Z,61.08
2018-06-09T05:48:23.841Z,58.63
2018-06-09T05:50:52.839Z,58.97
2018-06-09T05:53:22.429Z,57.03
2018-06-09T05:55:51.576Z,58.10
2018-06-09T05:58:20.547Z,55.26
2018-06-09T06:00:49.665Z,57.03
2018-06-09T06:03:18.802Z,56.73
2018-06-09T06:05:48.248Z,56.20
2018-06-09T06:08:17.257Z,55.13
2018-06-09T06:10:46.470Z,53.87
2018-06-09T06:13:15.547Z,54.44
2018-06-09T06:15:44.538Z,53.43
2018-06-09T06:18:13.574Z,53.93
2018-06-09T06:20:42.707Z,52.24
2018-06-09T06:23:11.647Z,53.84
2018-06-09T06:25:40.907Z,55.62
2018-06-09T06:28:10.285Z,53.78
2018-06-09T06:30:39.294Z,53.53
2018-06-09T06:33:08.329Z,53.07
2018-06-09T06:35:37.318Z,50.77
2018-06-09T06:38:06.353Z,53.46
2018-06-09T06:40:35.455Z,51.24
2018-06-09T06:43:04.392Z,51.43
2018-06-09T06:45:33.998Z,53.81
2018-06-09T06:48:02.977Z,52.67
2018-06-09T06:50:31.918Z,51.05
2018-06-09T06:53:00.846Z,51.33
2018-06-09T06:55:30.157Z,51.15
2018-06-09T06:57:59.071Z,52.47
2018-06-09T07:00:28.063Z,52.97
2018-06-09T07:02:57.081Z,52.75
2018-06-09T07:05:26.108Z,48.73
2018-06-09T07:07:55.102Z,49.08
2018-06-09T07:10:27.388Z,48.19
2018-06-09T07:12:58.167Z,48.97
2018-06-09T07:15:27.236Z,49.68
2018-06-09T07:17:56.241Z,48.97
2018-06-09T07:20:25.190Z,48.97
2018-06-09T07:22:54.196Z,49.65
2018-06-09T07:25:23.204Z,46.94
2018-06-09T07:27:53.078Z,48.46
2018-06-09T07:30:22.269Z,47.98
2018-06-09T07:32:52.256Z,48.16
2018-06-09T07:35:21.224Z,48.89
2018-06-09T07:37:50.333Z,48.45
2018-06-09T07:40:19.273Z,49.30
2018-06-09T07:42:48.700Z,51.58
2018-06-09T07:45:17.741Z,52.22
2018-06-09T07:47:46.836Z,51.63
2018-06-09T07:50:15.873Z,53.06
2018-06-09T07:52:45.776Z,52.28
2018-06-09T07:55:15.593Z,50.40
2018-06-09T07:57:44.518Z,51.96
2018-06-09T08:00:13.544Z,49.20
2018-06-09T08:02:42.524Z,50.50
2018-06-09T08:05:11.969Z,48.51
2018-06-09T08:07:41.023Z,50.80
2018-06-09T08:10:09.962Z,48.42
2018-06-09T08:12:38.918Z,49.56
2018-06-09T08:15:08.000Z,49.90
2018-06-09T08:17:36.924Z,48.28
2018-06-09T08:20:06.375Z,47.96
2018-06-09T08:22:36.380Z,47.36
2018-06-09T08:25:05.412Z,47.44
2018-06-09T08:27:34.433Z,46.37
2018-06-09T08:30:03.728Z,45.97
2018-06-09T08:32:32.681Z,48.10
2018-06-09T08:35:01.610Z,48.73
2018-06-09T08:37:31.165Z,47.79
2018-06-09T08:40:00.174Z,44.34
2018-06-09T08:42:29.207Z,47.17
2018-06-09T08:44:58.251Z,46.04
2018-06-09T08:47:27.988Z,45.13
2018-06-09T08:49:56.968Z,44.43
2018-06-09T08:52:25.959Z,44.24
2018-06-09T08:54:54.881Z,44.39
2018-06-09T08:57:23.870Z,44.62
2018-06-09T08:59:52.987Z,45.31
2018-06-09T09:02:21.912Z,42.39
2018-06-09T09:04:50.899Z,44.62
2018-06-09T09:07:20.026Z,43.68
2018-06-09T09:09:49.065Z,42.67
2018-06-09T09:12:18.601Z,40.41
2018-06-09T09:14:47.810Z,42.19
2018-06-09T09:17:16.781Z,42.46
2018-06-09T09:19:45.761Z,43.73
2018-06-09T09:22:15.372Z,40.56
2018-06-09T09:24:44.325Z,41.83
2018-06-09T09:27:13.315Z,37.57
2018-06-09T09:29:42.371Z,37.94
2018-06-09T09:32:11.981Z,40.41
2018-06-09T09:34:41.003Z,42.06
2018-06-09T09:37:10.700Z,40.02
2018-06-09T09:39:39.648Z,38.33
2018-06-09T09:42:08.583Z,40.78
2018-06-09T09:44:37.764Z,39.92
2018-06-09T09:47:06.973Z,39.47
2018-06-09T09:49:35.969Z,38.98
2018-06-09T09:52:04.960Z,40.10
2018-06-09T09:54:33.879Z,39.11
2018-06-09T09:57:02.876Z,37.79
2018-06-09T09:59:32.044Z,39.42
2018-06-09T10:02:01.116Z,37.87
2018-06-09T10:04:30.173Z,37.39
2018-06-09T10:06:59.185Z,40.18
2018-06-09T10:09:28.777Z,38.25
2018-06-09T10:11:57.729Z,39.81
2018-06-09T10:14:26.873Z,41.15
2018-06-09T10:16:56.434Z,37.74
2018-06-09T10:19:25.394Z,39.61
2018-06-09T10:21:54.445Z,38.36
2018-06-09T10:24:23.375Z,38.99
2018-06-09T10:26:52.408Z,38.52
2018-06-09T10:29:22.181Z,38.63
2018-06-09T10:31:51.764Z,39.76
2018-06-09T10:34:22.931Z,37.99
2018-06-09T10:36:51.887Z,38.80
2018-06-09T10:39:20.907Z,41.39
2018-06-09T10:41:50.626Z,39.21
2018-06-09T10:44:19.544Z,38.10
2018-06-09T10:46:48.466Z,37.52
2018-06-09T10:49:17.517Z,37.90
2018-06-09T10:51:46.482Z,37.83
2018-06-09T10:54:15.502Z,37.84
2018-06-09T10:56:44.505Z,37.39
2018-06-09T10:59:13.508Z,36.55
2018-06-09T11:01:42.510Z,36.03
2018-06-09T11:04:11.460Z,35.49
2018-06-09T11:06:40.470Z,35.48
2018-06-09T11:09:10.061Z,35.35
2018-06-09T11:11:41.040Z,36.70
2018-06-09T11:14:09.995Z,36.28
2018-06-09T11:16:39.005Z,36.54
2018-06-09T11:19:08.045Z,34.74
2018-06-09T11:21:40.594Z,34.94
2018-06-09T11:24:12.557Z,36.01
2018-06-09T11:26:42.193Z,31.09
2018-06-09T11:29:14.677Z,32.31
2018-06-09T11:31:43.662Z,32.31
2018-06-09T11:34:12.671Z,29.56
2018-06-09T11:36:41.873Z,29.14
2018-06-09T11:39:10.776Z,29.94
2018-06-09T11:41:39.833Z,30.21
2018-06-09T11:44:09.277Z,29.52
2018-06-09T11:46:38.319Z,29.69
2018-06-09T11:49:07.227Z,27.75
2018-06-09T11:51:36.277Z,31.49
2018-06-09T11:54:05.284Z,30.51
2018-06-09T11:56:34.270Z,27.22
2018-06-09T11:59:03.385Z,30.26
2018-06-09T12:01:32.395Z,29.80
2018-06-09T12:04:01.301Z,29.53
2018-06-09T12:06:30.722Z,29.37
2018-06-09T12:09:00.292Z,30.17
2018-06-09T12:11:29.427Z,30.65
2018-06-09T12:13:58.454Z,30.50
2018-06-09T12:16:27.389Z,29.77
2018-06-09T12:18:56.336Z,28.77
2018-06-09T12:21:25.356Z,24.76
2018-06-09T12:23:54.479Z,25.84
2018-06-09T12:26:23.469Z,26.23
2018-06-09T12:28:53.222Z,30.49
2018-06-09T12:31:22.211Z,28.65
2018-06-09T12:33:51.201Z,27.08
2018-06-09T12:36:20.182Z,28.16
2018-06-09T12:38:49.197Z,26.81
2018-06-09T12:41:18.628Z,28.10
2018-06-09T12:43:47.728Z,27.84
2018-06-09T12:46:16.751Z,28.37
2018-06-09T12:48:45.700Z,26.51
2018-06-09T12:51:14.740Z,28.04
2018-06-09T12:53:43.728Z,28.79
2018-06-09T12:56:12.639Z,29.89
2018-06-09T12:58:41.728Z,27.91
2018-06-09T13:01:10.652Z,28.59
2018-06-09T13:03:39.584Z,28.84
2018-06-09T13:06:08.757Z,28.26
2018-06-09T13:08:37.697Z,29.22
2018-06-09T13:11:06.621Z,30.25
2018-06-09T13:13:35.693Z,30.05
2018-06-09T13:16:04.682Z,28.78
2018-06-09T13:18:33.615Z,29.46
2018-06-09T13:21:02.700Z,30.09
2018-06-09T13:23:31.669Z,28.83
2018-06-09T13:26:01.611Z,31.17
2018-06-09T13:28:30.652Z,32.08
2018-06-09T13:30:59.795Z,30.32
2018-06-09T13:33:28.804Z,31.73
2018-06-09T13:35:57.997Z,30.92
2018-06-09T13:38:27.463Z,30.95
2018-06-09T13:40:56.540Z,34.05
2018-06-09T13:43:25.625Z,32.29
2018-06-09T13:45:54.543Z,33.19
2018-06-09T13:48:23.503Z,31.99
2018-06-09T13:50:52.515Z,31.65
2018-06-09T13:53:22.324Z,32.12
2018-06-09T13:55:51.219Z,31.62
2018-06-09T13:58:20.184Z,33.21
2018-06-09T14:00:49.173Z,31.46
2018-06-09T14:03:18.788Z,31.80
2018-06-09T14:05:48.470Z,31.42
2018-06-09T14:08:17.393Z,29.07
2018-06-09T14:10:46.304Z,28.56
2018-06-09T14:13:15.409Z,29.45
2018-06-09T14:15:44.292Z,28.99
2018-06-09T14:18:13.251Z,29.31
2018-06-09T14:20:42.315Z,30.07
2018-06-09T14:23:11.226Z,31.74
2018-06-09T14:25:40.123Z,32.97
2018-06-09T14:28:09.304Z,33.30
2018-06-09T14:30:38.325Z,32.62
2018-06-09T14:33:08.992Z,33.36
2018-06-09T14:35:38.137Z,32.32
2018-06-09T14:38:07.029Z,33.41
2018-06-09T14:40:35.974Z,34.13
2018-06-09T14:43:05.364Z,34.60
2018-06-09T14:45:34.308Z,33.93
2018-06-09T14:48:03.357Z,34.38
2018-06-09T14:50:32.328Z,33.07
2018-06-09T14:53:01.325Z,33.76
2018-06-09T14:55:30.352Z,33.43
2018-06-09T14:57:59.650Z,35.03
2018-06-09T15:00:28.557Z,33.30
2018-06-09T15:02:57.490Z,34.43
2018-06-09T15:05:26.576Z,35.21
2018-06-09T15:07:55.557Z,34.84
2018-06-09T15:10:25.048Z,34.81
2018-06-09T15:12:54.036Z,35.05
2018-06-09T15:15:23.540Z,35.36
2018-06-09T15:17:52.504Z,35.68
2018-06-09T15:20:21.584Z,35.06
2018-06-09T15:22:50.663Z,33.96
2018-06-09T15:25:19.683Z,36.07
2018-06-09T15:27:48.848Z,34.30
2018-06-09T15:30:17.949Z,34.12
2018-06-09T15:32:47.901Z,35.16
2018-06-09T15:35:16.882Z,36.08
2018-06-09T15:37:45.892Z,35.27
2018-06-09T15:40:14.824Z,36.96
2018-06-09T15:42:43.882Z,34.82
2018-06-09T15:45:12.899Z,35.24
2018-06-09T15:47:41.848Z,36.01
2018-06-09T15:50:10.909Z,36.98
2018-06-09T15:52:39.918Z,35.68
2018-06-09T15:55:09.469Z,36.19
2018-06-09T15:57:38.542Z,35.97
2018-06-09T16:00:07.488Z,37.21
2018-06-09T16:02:36.846Z,36.16
2018-06-09T16:05:05.917Z,35.24
2018-06-09T16:07:34.915Z,37.19
2018-06-09T16:10:04.443Z,35.72
2018-06-09T16:12:33.498Z,36.23
2018-06-09T16:15:02.545Z,37.07
2018-06-09T16:17:31.479Z,36.50
2018-06-09T16:20:00.530Z,38.37
2018-06-09T16:22:29.462Z,38.99
2018-06-09T16:24:58.483Z,38.21
2018-06-09T16:27:27.545Z,39.29
2018-06-09T16:29:56.441Z,38.80
2018-06-09T16:32:25.408Z,38.10
2018-06-09T16:34:54.419Z,39.70
2018-06-09T16:37:23.423Z,37.81
2018-06-09T16:39:52.999Z,37.47
2018-06-09T16:42:22.032Z,39.83
2018-06-09T16:47:25.656Z,39.98
2018-06-09T16:49:55.141Z,40.61
2018-06-09T16:52:24.072Z,41.51
2018-06-09T16:54:53.146Z,40.34
2018-06-09T16:57:22.060Z,40.70
2018-06-09T16:59:50.990Z,40.45
2018-06-09T17:04:54.199Z,40.54
2018-06-09T17:07:23.172Z,40.86
2018-06-09T17:09:52.158Z,41.79
2018-06-09T17:12:21.073Z,44.35
2018-06-09T17:17:24.217Z,49.78
2018-06-09T17:19:55.128Z,51.33
2018-06-09T17:22:24.108Z,52.09
2018-06-09T17:24:53.050Z,53.25
2018-06-09T17:27:21.995Z,54.05
2018-06-09T17:29:50.887Z,54.45
2018-06-09T17:32:19.905Z,54.88
2018-06-09T17:34:48.864Z,55.78
2018-06-09T17:37:17.795Z,56.51
2018-06-09T17:39:53.824Z,56.94
2018-06-09T17:42:22.766Z,56.31
2018-06-09T17:44:51.757Z,57.91
2018-06-09T17:47:20.799Z,57.19
2018-06-09T17:49:49.812Z,57.28
2018-06-09T17:52:18.868Z,57.78
2018-06-09T17:54:47.876Z,57.70
2018-06-09T17:57:16.832Z,57.68
2018-06-09T17:59:45.766Z,57.72
2018-06-09T18:02:14.729Z,59.39
2018-06-09T18:04:43.777Z,59.20
2018-06-09T18:07:13.191Z,59.70
2018-06-09T18:09:42.205Z,59.04
2018-06-09T18:12:11.187Z,59.71
2018-06-09T18:14:40.229Z,59.48
2018-06-09T18:17:09.292Z,59.15
2018-06-09T18:19:38.338Z,60.03
2018-06-09T18:22:07.271Z,59.21
2018-06-09T18:24:36.236Z,60.18
2018-06-09T18:27:05.456Z,60.59
2018-06-09T18:29:34.480Z,59.96
2018-06-09T18:32:03.636Z,61.01
2018-06-09T18:34:32.596Z,60.92
2018-06-09T18:37:01.568Z,60.50
2018-06-09T18:39:30.626Z,60.59
2018-06-09T18:41:59.589Z,60.97
2018-06-09T18:44:28.580Z,62.08
2018-06-09T18:46:57.524Z,61.26
2018-06-09T18:49:26.518Z,61.79
2018-06-09T18:51:55.531Z,61.79
2018-06-09T18:54:24.599Z,61.76
2018-06-09T18:56:53.809Z,61.58
2018-06-09T18:59:22.717Z,61.93
2018-06-09T19:01:51.696Z,62.16
2018-06-09T19:04:20.764Z,62.17
2018-06-09T19:06:49.705Z,62.30
2018-06-09T19:09:18.952Z,62.04
2018-06-09T19:11:47.924Z,62.66
2018-06-09T19:14:16.847Z,63.05
2018-06-09T19:16:45.939Z,62.98
2018-06-09T19:19:14.906Z,62.92
2018-06-09T19:21:43.935Z,62.24
2018-06-09T19:24:13.022Z,62.32
2018-06-09T19:26:45.159Z,62.94
2018-06-09T19:29:14.201Z,62.75
2018-06-09T19:31:43.140Z,63.16
2018-06-09T19:34:12.120Z,62.75
2018-06-09T19:36:41.114Z,62.97
2018-06-09T19:39:10.040Z,63.07
2018-06-09T19:41:38.956Z,63.22
2018-06-09T19:44:07.951Z,63.17
2018-06-09T19:46:36.928Z,62.76
2018-06-09T19:49:05.988Z,63.69
2018-06-09T19:51:35.102Z,62.43
2018-06-09T19:54:04.188Z,62.78
2018-06-09T19:56:33.172Z,62.25
2018-06-09T19:59:02.122Z,63.42
2018-06-09T20:01:31.724Z,63.21
2018-06-09T20:04:00.627Z,63.56
2018-06-09T20:06:30.431Z,62.58
2018-06-09T20:08:59.347Z,63.22
2018-06-09T20:11:28.292Z,62.24
2018-06-09T20:13:57.256Z,62.26
2018-06-09T20:16:26.831Z,62.37
2018-06-09T20:18:56.698Z,63.04
2018-06-09T20:21:25.721Z,63.42
2018-06-09T20:23:54.647Z,62.17
2018-06-09T20:26:23.551Z,62.86
2018-06-09T20:28:52.757Z,63.20
2018-06-09T20:31:22.094Z,62.85
2018-06-09T20:33:51.086Z,62.64
2018-06-09T20:36:20.185Z,61.68
2018-06-09T20:38:50.170Z,61.55
2018-06-09T20:41:19.102Z,62.24
2018-06-09T20:43:48.261Z,62.94
2018-06-09T20:46:17.227Z,61.82
2018-06-09T20:48:46.941Z,61.65
2018-06-09T20:51:15.989Z,61.75
2018-06-09T20:53:44.976Z,61.35
2018-06-09T20:56:14.019Z,61.54
2018-06-09T20:58:43.057Z,61.66
2018-06-09T21:01:12.792Z,62.05
2018-06-09T21:03:42.822Z,60.55
2018-06-09T21:06:12.703Z,61.43
2018-06-09T21:08:41.654Z,61.12
2018-06-09T21:11:10.579Z,60.77
2018-06-09T21:13:39.538Z,60.30
2018-06-09T21:16:08.453Z,60.06
2018-06-09T21:18:37.413Z,59.58
2018-06-09T21:21:07.501Z,60.42
2018-06-09T21:23:36.987Z,60.45
2018-06-09T21:26:06.037Z,59.32
2018-06-09T21:28:40.213Z,59.95
2018-06-09T21:31:14.374Z,60.31
2018-06-09T21:33:59.224Z,59.22
2018-06-09T21:36:28.324Z,58.91
2018-06-09T21:39:00.654Z,59.96
2018-06-09T21:41:36.249Z,59.34
2018-06-09T21:44:10.392Z,59.23
2018-06-09T21:46:44.330Z,59.57
2018-06-09T21:49:13.889Z,58.85
2018-06-09T21:51:42.807Z,58.43
2018-06-09T21:54:13.411Z,59.10
2018-06-09T21:56:43.314Z,58.62
2018-06-09T21:59:12.376Z,57.86
2018-06-09T22:01:41.421Z,57.91
2018-06-09T22:04:10.396Z,58.36
2018-06-09T22:06:39.425Z,58.57
2018-06-09T22:09:09.075Z,58.14
2018-06-09T22:11:38.932Z,56.94
2018-06-09T22:14:07.949Z,56.98
2018-06-09T22:16:36.855Z,56.55
2018-06-09T22:19:05.990Z,56.54
2018-06-09T22:21:34.919Z,55.36
2018-06-09T22:24:03.888Z,56.02
2018-06-09T22:26:33.188Z,55.56
2018-06-09T22:29:02.128Z,55.92
2018-06-09T22:31:31.145Z,55.29
2018-06-09T22:34:00.179Z,55.80
2018-06-09T22:36:29.132Z,55.10
2018-06-09T22:38:58.059Z,54.70
2018-06-09T22:41:27.102Z,54.70
2018-06-09T22:43:56.089Z,55.12
2018-06-09T22:46:25.008Z,55.31
2018-06-09T22:48:54.204Z,56.21
2018-06-09T22:51:23.216Z,56.04
2018-06-09T22:53:52.133Z,55.76
2018-06-09T22:56:22.096Z,55.64
2018-06-09T22:58:51.415Z,55.36
2018-06-09T23:01:20.979Z,55.13
2018-06-09T23:03:49.948Z,55.05
2018-06-09T23:06:18.871Z,54.05
2018-06-09T23:08:47.775Z,53.71
2018-06-09T23:11:16.767Z,52.49
2018-06-09T23:13:46.438Z,52.56
2018-06-09T23:16:15.355Z,52.22
2018-06-09T23:18:44.431Z,51.87
2018-06-09T23:21:13.330Z,50.65
2018-06-09T23:23:42.251Z,50.35
2018-06-09T23:26:11.245Z,49.76
2018-06-09T23:28:40.294Z,49.93
2018-06-09T23:31:09.179Z,50.07
2018-06-09T23:33:39.163Z,49.07
2018-06-09T23:36:08.091Z,49.97
2018-06-09T23:38:37.011Z,49.79
2018-06-09T23:41:07.135Z,50.75
2018-06-09T23:43:36.072Z,51.35
2018-06-09T23:46:05.003Z,50.92
2018-06-09T23:48:33.976Z,51.54
2018-06-09T23:51:02.910Z,50.88
2018-06-09T23:53:31.822Z,50.93
2018-06-09T23:56:00.862Z,52.04
2018-06-09T23:58:29.840Z,52.99
